createdAt,value
2023-03-27T00:01:43.441Z,10.70
2023-03-27T00:04:46.443Z,10.61
2023-03-27T00:07:51.123Z,10.67
2023-03-27T00:10:54.567Z,10.88
2023-03-27T00:13:56.996Z,10.75
2023-03-27T00:17:00.354Z,10.72
2023-03-27T00:20:05.673Z,10.78
2023-03-27T00:23:08.433Z,10.51
2023-03-27T00:26:12.103Z,10.60
2023-03-27T00:29:14.905Z,10.35
2023-03-27T00:32:17.218Z,10.71
2023-03-27T00:35:19.977Z,10.84
2023-03-27T00:38:22.651Z,10.67
2023-03-27T00:41:26.005Z,10.79
2023-03-27T00:44:38.647Z,10.58
2023-03-27T00:47:42.518Z,10.52
2023-03-27T00:50:46.735Z,10.57
2023-03-27T00:53:50.254Z,10.65
2023-03-27T00:56:55.645Z,10.48
2023-03-27T01:00:02.425Z,10.52
2023-03-27T01:03:08.850Z,10.56
2023-03-27T01:06:14.297Z,10.49
2023-03-27T01:09:20.225Z,10.44
2023-03-27T01:12:45.247Z,10.52
2023-03-27T01:16:07.072Z,10.38
2023-03-27T01:19:31.803Z,10.41
2023-03-27T01:22:52.687Z,10.43
2023-03-27T01:26:36.080Z,10.12
2023-03-27T01:29:48.889Z,10.18
2023-03-27T01:32:51.656Z,10.21
2023-03-27T01:36:02.583Z,10.32
2023-03-27T01:39:14.085Z,10.02
2023-03-27T01:42:34.855Z,10.08
2023-03-27T01:46:00.996Z,10.10
2023-03-27T01:49:14.814Z,9.88
2023-03-27T01:52:27.190Z,10.20
2023-03-27T01:55:36.475Z,10.32
2023-03-27T01:58:47.990Z,10.32
2023-03-27T02:02:10.540Z,10.18
2023-03-27T02:05:23.490Z,10.17
2023-03-27T02:08:50.654Z,9.97
2023-03-27T02:11:59.148Z,10.08
2023-03-27T02:15:24.168Z,10.09
2023-03-27T02:18:39.226Z,10.10
2023-03-27T02:21:41.833Z,9.99
2023-03-27T02:24:46.240Z,9.88
2023-03-27T02:27:53.135Z,9.73
2023-03-27T02:31:06.171Z,9.54
2023-03-27T02:34:46.842Z,9.75
2023-03-27T02:38:17.529Z,9.81
2023-03-27T02:41:39.346Z,9.85
2023-03-27T02:45:16.878Z,9.82
2023-03-27T02:48:34.428Z,10.00
2023-03-27T02:51:42.173Z,9.86
2023-03-27T02:54:52.281Z,10.00
2023-03-27T02:58:04.176Z,9.89
2023-03-27T03:01:09.565Z,10.00
2023-03-27T03:04:28.583Z,9.96
2023-03-27T03:07:34.693Z,10.04
2023-03-27T03:10:44.271Z,10.03
2023-03-27T03:13:47.815Z,10.03
2023-03-27T03:16:50.469Z,9.90
2023-03-27T03:19:53.731Z,9.96
2023-03-27T03:23:00.136Z,10.01
2023-03-27T03:26:03.117Z,9.93
2023-03-27T03:29:07.868Z,9.91
2023-03-27T03:32:11.550Z,10.08
2023-03-27T03:35:14.755Z,10.00
2023-03-27T03:38:28.071Z,9.92
2023-03-27T03:41:31.634Z,9.86
2023-03-27T03:44:35.235Z,9.92
2023-03-27T03:47:39.825Z,9.95
2023-03-27T03:50:43.976Z,9.80
2023-03-27T03:53:46.762Z,9.89
2023-03-27T03:56:49.198Z,9.84
2023-03-27T03:59:52.027Z,9.91
2023-03-27T04:02:55.271Z,9.96
2023-03-27T04:06:01.501Z,9.90
2023-03-27T04:09:06.074Z,9.90
2023-03-27T04:12:09.995Z,9.73
2023-03-27T04:15:15.672Z,9.82
2023-03-27T04:18:20.137Z,9.81
2023-03-27T04:21:26.570Z,9.81
2023-03-27T04:24:32.268Z,9.86
2023-03-27T04:27:36.020Z,9.71
2023-03-27T04:30:44.168Z,9.62
2023-03-27T04:33:51.926Z,9.58
2023-03-27T04:37:00.411Z,9.73
2023-03-27T04:40:05.018Z,9.55
2023-03-27T04:43:08.661Z,9.61
2023-03-27T04:46:11.008Z,9.64
2023-03-27T04:49:19.170Z,9.62
2023-03-27T04:52:21.643Z,9.63
2023-03-27T04:55:26.762Z,9.58
2023-03-27T04:58:29.208Z,9.50
2023-03-27T05:01:32.356Z,9.64
2023-03-27T05:04:38.904Z,9.57
2023-03-27T05:07:47.964Z,9.46
2023-03-27T05:10:52.285Z,9.50
2023-03-27T05:13:55.254Z,9.50
2023-03-27T05:17:00.842Z,9.53
2023-03-27T05:20:04.759Z,9.50
2023-03-27T05:23:07.740Z,9.45
2023-03-27T05:26:10.373Z,9.43
2023-03-27T05:29:14.029Z,9.45
2023-03-27T05:32:17.694Z,9.47
2023-03-27T05:35:23.387Z,9.45
2023-03-27T05:38:27.308Z,9.41
2023-03-27T05:41:30.338Z,9.29
2023-03-27T05:44:37.303Z,9.52
2023-03-27T05:47:55.682Z,9.37
2023-03-27T05:50:58.548Z,9.31
2023-03-27T05:54:01.121Z,9.46
2023-03-27T05:57:07.973Z,9.50
2023-03-27T06:00:13.989Z,9.49
2023-03-27T06:03:19.999Z,9.47
2023-03-27T06:06:26.506Z,9.48
2023-03-27T06:09:30.416Z,9.47
2023-03-27T06:12:37.033Z,9.48
2023-03-27T06:15:41.871Z,9.48
2023-03-27T06:18:45.532Z,9.49
2023-03-27T06:21:48.283Z,9.42
2023-03-27T06:24:51.633Z,9.48
2023-03-27T06:27:54.191Z,9.43
2023-03-27T06:30:57.787Z,9.50
2023-03-27T06:34:00.632Z,9.50
2023-03-27T06:37:05.868Z,9.46
2023-03-27T06:40:10.419Z,9.39
2023-03-27T06:43:14.260Z,9.32
2023-03-27T06:46:22.917Z,9.51
2023-03-27T06:49:31.676Z,9.56
2023-03-27T06:52:34.541Z,9.51
2023-03-27T06:55:39.025Z,9.42
2023-03-27T06:58:41.970Z,9.50
2023-03-27T07:01:46.202Z,9.45
2023-03-27T07:05:03.834Z,9.50
2023-03-27T07:08:21.627Z,9.41
2023-03-27T07:11:26.174Z,9.36
2023-03-27T07:14:28.920Z,9.36
2023-03-27T07:17:45.540Z,9.43
2023-03-27T07:20:51.459Z,9.36
2023-03-27T07:23:54.258Z,9.37
2023-03-27T07:27:01.293Z,9.33
2023-03-27T07:30:08.006Z,9.45
2023-03-27T07:33:10.825Z,9.48
2023-03-27T07:36:14.219Z,9.47
2023-03-27T07:39:17.334Z,9.56
2023-03-27T07:42:19.777Z,9.58
2023-03-27T07:45:24.094Z,9.62
2023-03-27T07:48:27.849Z,9.49
2023-03-27T07:51:30.721Z,9.46
2023-03-27T07:54:33.092Z,9.49
2023-03-27T07:57:58.042Z,9.51
2023-03-27T08:01:03.131Z,9.45
2023-03-27T08:04:06.845Z,9.44
2023-03-27T08:07:10.177Z,9.34
2023-03-27T08:10:13.809Z,9.23
2023-03-27T08:13:19.061Z,9.22
2023-03-27T08:16:21.850Z,9.24
2023-03-27T08:19:25.239Z,9.16
2023-03-27T08:22:28.680Z,9.26
2023-03-27T08:25:34.921Z,9.27
2023-03-27T08:28:38.460Z,9.22
2023-03-27T08:31:41.061Z,9.21
2023-03-27T08:34:43.853Z,9.21
2023-03-27T08:37:47.186Z,9.09
2023-03-27T08:40:53.902Z,9.09
2023-03-27T08:44:00.135Z,9.24
2023-03-27T08:47:11.922Z,9.26
2023-03-27T08:50:49.663Z,9.24
2023-03-27T08:54:16.824Z,9.21
2023-03-27T08:57:22.937Z,9.19
2023-03-27T09:00:35.406Z,9.23
2023-03-27T09:03:44.236Z,9.15
2023-03-27T09:07:05.408Z,9.08
2023-03-27T09:10:46.831Z,9.19
2023-03-27T09:13:53.822Z,9.16
2023-03-27T09:16:59.458Z,9.20
2023-03-27T09:20:18.070Z,9.22
2023-03-27T09:23:38.137Z,9.29
2023-03-27T09:26:43.134Z,9.31
2023-03-27T09:30:05.014Z,9.24
2023-03-27T09:33:12.363Z,9.14
2023-03-27T09:36:17.409Z,9.21
2023-03-27T09:39:25.287Z,9.15
2023-03-27T09:42:37.547Z,9.00
2023-03-27T09:45:42.017Z,9.13
2023-03-27T09:49:18.368Z,9.01
2023-03-27T09:52:39.302Z,9.10
2023-03-27T09:55:54.209Z,9.02
2023-03-27T09:58:59.055Z,9.00
2023-03-27T10:02:17.166Z,8.99
2023-03-27T10:05:22.133Z,8.95
2023-03-27T10:08:27.180Z,8.82
2023-03-27T10:11:33.832Z,8.96
2023-03-27T10:14:50.558Z,8.87
2023-03-27T10:17:55.518Z,8.86
2023-03-27T10:21:01.454Z,8.76
2023-03-27T10:24:18.912Z,8.82
2023-03-27T10:27:26.601Z,8.85
2023-03-27T10:30:38.290Z,8.94
2023-03-27T10:33:41.772Z,8.79
2023-03-27T10:36:47.410Z,8.91
2023-03-27T10:39:53.233Z,8.92
2023-03-27T10:43:01.791Z,8.82
2023-03-27T10:46:08.886Z,8.77
2023-03-27T10:49:24.718Z,8.83
2023-03-27T10:52:31.151Z,8.74
2023-03-27T10:55:51.701Z,8.77
2023-03-27T10:58:59.815Z,8.78
2023-03-27T11:02:14.890Z,8.74
2023-03-27T11:05:26.408Z,8.80
2023-03-27T11:08:36.226Z,8.66
2023-03-27T11:11:45.251Z,8.66
2023-03-27T11:14:56.434Z,8.58
2023-03-27T11:18:11.479Z,8.64
2023-03-27T11:21:29.500Z,8.63
2023-03-27T11:25:03.936Z,8.52
2023-03-27T11:28:18.564Z,8.61
2023-03-27T11:31:40.132Z,8.50
2023-03-27T11:34:49.260Z,8.60
2023-03-27T11:38:28.838Z,8.55
2023-03-27T11:41:32.249Z,8.64
2023-03-27T11:44:36.881Z,8.62
2023-03-27T11:48:10.835Z,8.58
2023-03-27T11:51:23.457Z,8.57
2023-03-27T11:55:00.369Z,8.70
2023-03-27T11:58:12.071Z,8.69
2023-03-27T12:01:27.142Z,8.82
2023-03-27T12:04:46.377Z,8.89
2023-03-27T12:08:29.679Z,9.06
2023-03-27T12:11:39.543Z,9.06
2023-03-27T12:15:33.051Z,9.17
2023-03-27T12:19:03.827Z,9.29
2023-03-27T12:22:31.404Z,9.52
2023-03-27T12:26:02.401Z,9.70
2023-03-27T12:29:23.143Z,9.73
2023-03-27T12:32:44.450Z,9.74
2023-03-27T12:35:50.796Z,9.83
2023-03-27T12:38:57.766Z,9.84
2023-03-27T12:42:13.114Z,9.74
2023-03-27T12:45:18.282Z,9.70
2023-03-27T12:48:20.955Z,9.60
2023-03-27T12:51:48.413Z,9.47
2023-03-27T12:55:06.212Z,9.39
2023-03-27T12:58:24.000Z,9.42
2023-03-27T13:01:54.470Z,9.31
2023-03-27T13:04:57.168Z,9.16
2023-03-27T13:08:18.457Z,8.99
2023-03-27T13:11:44.975Z,8.86
2023-03-27T13:14:51.326Z,8.86
2023-03-27T13:18:00.653Z,8.70
2023-03-27T13:21:43.878Z,8.64
2023-03-27T13:25:14.731Z,8.53
2023-03-27T13:28:34.673Z,8.49
2023-03-27T13:31:44.433Z,8.23
2023-03-27T13:35:05.246Z,8.16
2023-03-27T13:38:11.576Z,7.87
2023-03-27T13:41:37.346Z,7.65
2023-03-27T13:45:22.250Z,7.73
2023-03-27T13:48:26.578Z,7.57
2023-03-27T13:51:51.736Z,7.60
2023-03-27T13:55:00.402Z,7.42
2023-03-27T13:58:25.161Z,7.44
2023-03-27T14:01:46.118Z,7.44
2023-03-27T14:05:06.681Z,7.44
2023-03-27T14:08:30.290Z,7.35
2023-03-27T14:11:56.915Z,7.09
2023-03-27T14:15:14.965Z,7.04
2023-03-27T14:18:36.485Z,6.96
2023-03-27T14:21:53.548Z,6.85
2023-03-27T14:25:04.571Z,6.66
2023-03-27T14:28:29.148Z,6.56
2023-03-27T14:31:35.403Z,6.40
2023-03-27T14:34:53.241Z,6.38
2023-03-27T14:38:01.396Z,6.41
2023-03-27T14:41:07.099Z,6.41
2023-03-27T14:44:13.784Z,6.33
2023-03-27T14:47:18.151Z,6.41
2023-03-27T14:50:21.301Z,6.24
2023-03-27T14:53:28.532Z,6.48
2023-03-27T14:56:37.462Z,6.38
2023-03-27T14:59:43.636Z,6.14
2023-03-27T15:02:49.228Z,6.21
2023-03-27T15:06:19.406Z,6.34
2023-03-27T15:09:24.159Z,6.42
2023-03-27T15:12:27.984Z,6.28
2023-03-27T15:15:34.560Z,6.09
2023-03-27T15:18:50.932Z,6.02
2023-03-27T15:22:04.887Z,5.99
2023-03-27T15:25:17.429Z,6.17
2023-03-27T15:28:28.575Z,5.83
2023-03-27T15:31:33.018Z,5.82
2023-03-27T15:34:49.092Z,5.59
2023-03-27T15:37:51.807Z,5.65
2023-03-27T15:41:22.390Z,5.55
2023-03-27T15:44:30.026Z,5.64
2023-03-27T15:47:33.300Z,5.59
2023-03-27T15:50:37.074Z,5.58
2023-03-27T15:53:47.913Z,5.52
2023-03-27T15:56:50.707Z,5.63
2023-03-27T15:59:53.850Z,5.61
2023-03-27T16:02:56.984Z,5.53
2023-03-27T16:06:00.945Z,5.51
2023-03-27T16:09:05.951Z,5.57
2023-03-27T16:12:10.377Z,5.45
2023-03-27T16:15:36.920Z,5.29
2023-03-27T16:18:40.903Z,5.30
2023-03-27T16:22:03.794Z,5.36
2023-03-27T16:25:11.989Z,5.57
2023-03-27T16:28:14.802Z,5.35
2023-03-27T16:31:19.394Z,5.48
2023-03-27T16:34:22.183Z,5.25
2023-03-27T16:37:27.544Z,5.41
2023-03-27T16:40:29.842Z,5.21
2023-03-27T16:43:33.318Z,5.28
2023-03-27T16:46:36.054Z,5.42
2023-03-27T16:49:38.830Z,5.44
2023-03-27T16:52:41.355Z,5.47
2023-03-27T16:55:44.769Z,5.44
2023-03-27T16:58:47.148Z,5.39
2023-03-27T17:01:50.449Z,5.53
2023-03-27T17:04:52.829Z,5.40
2023-03-27T17:07:55.494Z,5.29
2023-03-27T17:11:06.643Z,5.40
2023-03-27T17:14:09.816Z,5.34
2023-03-27T17:17:13.005Z,5.24
2023-03-27T17:20:15.963Z,5.32
2023-03-27T17:23:18.854Z,5.39
2023-03-27T17:26:30.317Z,5.43
2023-03-27T17:29:33.106Z,5.29
2023-03-27T17:32:35.788Z,5.23
2023-03-27T17:35:42.512Z,5.25
2023-03-27T17:38:45.457Z,5.12
2023-03-27T17:41:49.132Z,5.11
2023-03-27T17:44:51.782Z,5.05
2023-03-27T17:47:54.167Z,5.18
2023-03-27T17:51:08.229Z,5.26
2023-03-27T17:54:11.920Z,4.98
2023-03-27T17:57:14.818Z,5.00
2023-03-27T18:00:18.045Z,5.08
2023-03-27T18:03:21.385Z,4.91
2023-03-27T18:06:23.780Z,4.92
2023-03-27T18:09:26.713Z,4.91
2023-03-27T18:12:32.558Z,4.92
2023-03-27T18:15:35.440Z,4.75
2023-03-27T18:18:40.784Z,4.78
2023-03-27T18:21:44.102Z,4.70
2023-03-27T18:24:46.995Z,4.67
2023-03-27T18:27:49.807Z,4.72
2023-03-27T18:31:03.778Z,4.71
2023-03-27T18:34:07.174Z,4.53
2023-03-27T18:37:09.559Z,4.61
2023-03-27T18:40:16.198Z,4.53
2023-03-27T18:43:18.538Z,4.58
2023-03-27T18:46:21.376Z,4.33
2023-03-27T18:49:25.307Z,4.43
2023-03-27T18:52:28.595Z,4.54
2023-03-27T18:55:32.328Z,4.35
2023-03-27T18:58:36.087Z,4.36
2023-03-27T19:01:38.768Z,4.29
2023-03-27T19:04:41.611Z,4.36
2023-03-27T19:07:44.402Z,4.38
2023-03-27T19:10:48.550Z,4.37
2023-03-27T19:13:51.282Z,4.39
2023-03-27T19:16:55.064Z,4.26
2023-03-27T19:20:02.278Z,4.25
2023-03-27T19:23:05.334Z,4.30
2023-03-27T19:26:13.532Z,4.26
2023-03-27T19:29:16.542Z,4.32
2023-03-27T19:32:19.052Z,4.27
2023-03-27T19:35:21.900Z,4.27
2023-03-27T19:38:24.322Z,4.32
2023-03-27T19:41:27.174Z,4.18
2023-03-27T19:44:29.723Z,4.32
2023-03-27T19:47:32.395Z,4.20
2023-03-27T19:50:34.886Z,4.31
2023-03-27T19:53:38.471Z,4.21
2023-03-27T19:56:41.450Z,4.33
2023-03-27T19:59:44.277Z,4.30
2023-03-27T20:02:46.734Z,4.13
2023-03-27T20:05:51.656Z,4.16
2023-03-27T20:08:53.987Z,4.25
2023-03-27T20:11:56.948Z,4.25
2023-03-27T20:15:11.001Z,4.32
2023-03-27T20:18:18.162Z,4.22
2023-03-27T20:21:24.879Z,4.19
2023-03-27T20:24:29.004Z,4.22
2023-03-27T20:27:32.040Z,4.13
2023-03-27T20:30:37.654Z,4.10
2023-03-27T20:33:40.092Z,4.20
2023-03-27T20:36:43.475Z,4.15
2023-03-27T20:39:47.335Z,4.20
2023-03-27T20:42:54.468Z,4.18
2023-03-27T20:46:00.605Z,4.23
2023-03-27T20:49:03.547Z,4.02
2023-03-27T20:52:07.106Z,4.20
2023-03-27T20:55:13.381Z,4.05
2023-03-27T20:58:19.833Z,4.03
2023-03-27T21:01:27.741Z,4.24
2023-03-27T21:04:31.710Z,4.21
2023-03-27T21:07:38.092Z,4.20
2023-03-27T21:10:41.210Z,4.14
2023-03-27T21:13:44.164Z,4.05
2023-03-27T21:16:46.771Z,4.03
2023-03-27T21:19:49.560Z,3.82
2023-03-27T21:22:52.817Z,3.99
2023-03-27T21:25:55.492Z,3.86
2023-03-27T21:28:57.846Z,3.97
2023-03-27T21:32:00.522Z,4.00
2023-03-27T21:35:02.940Z,3.95
2023-03-27T21:38:05.629Z,3.98
2023-03-27T21:41:08.269Z,3.89
2023-03-27T21:44:10.866Z,3.87
2023-03-27T21:47:13.204Z,3.92
2023-03-27T21:50:16.023Z,3.92
2023-03-27T21:53:18.345Z,3.92
2023-03-27T21:56:20.991Z,3.87
2023-03-27T21:59:23.372Z,3.90
2023-03-27T22:02:26.090Z,3.77
2023-03-27T22:05:28.833Z,3.94
2023-03-27T22:08:31.160Z,3.81
2023-03-27T22:11:33.720Z,3.93
2023-03-27T22:14:36.208Z,3.94
2023-03-27T22:17:39.060Z,3.90
2023-03-27T22:20:41.679Z,3.80
2023-03-27T22:23:44.545Z,3.69
2023-03-27T22:26:46.952Z,3.71
2023-03-27T22:29:49.636Z,3.85
2023-03-27T22:32:51.996Z,3.81
2023-03-27T22:35:54.706Z,3.64
2023-03-27T22:38:57.210Z,3.77
2023-03-27T22:41:59.916Z,3.79
2023-03-27T22:45:03.194Z,3.65
2023-03-27T22:48:06.032Z,3.62
2023-03-27T22:51:10.315Z,3.73
2023-03-27T22:54:12.948Z,3.72
2023-03-27T22:57:15.492Z,3.58
2023-03-27T23:00:18.700Z,3.58
2023-03-27T23:03:22.534Z,3.67
2023-03-27T23:06:25.505Z,3.66
2023-03-27T23:09:27.938Z,3.71
2023-03-27T23:12:30.619Z,3.66
2023-03-27T23:15:32.972Z,3.61
2023-03-27T23:18:36.345Z,3.65
2023-03-27T23:21:38.687Z,3.47
2023-03-27T23:24:41.313Z,3.59
2023-03-27T23:27:43.714Z,3.53
2023-03-27T23:31:00.398Z,3.53
2023-03-27T23:34:02.736Z,3.51
2023-03-27T23:37:06.075Z,3.51
2023-03-27T23:40:09.131Z,3.43
2023-03-27T23:43:11.704Z,3.37
2023-03-27T23:46:15.976Z,3.24
2023-03-27T23:49:18.668Z,3.38
2023-03-27T23:52:21.253Z,3.21
2023-03-27T23:55:23.897Z,3.28
2023-03-27T23:58:34.182Z,3.17
